createdAt,value
2023-11-15T00:00:08.599Z,88.77
2023-11-15T00:02:35.968Z,89.93
2023-11-15T00:05:04.177Z,91.30
2023-11-15T00:07:31.644Z,89.70
2023-11-15T00:09:58.420Z,90.62
2023-11-15T00:12:26.347Z,90.10
2023-11-15T00:14:53.296Z,89.70
2023-11-15T00:17:20.377Z,89.44
2023-11-15T00:19:47.318Z,88.20
2023-11-15T00:22:16.111Z,88.72
2023-11-15T00:24:43.850Z,89.68
2023-11-15T00:27:12.214Z,92.70
2023-11-15T00:29:38.942Z,93.97
2023-11-15T00:32:06.210Z,93.66
2023-11-15T00:34:33.351Z,92.23
2023-11-15T00:37:01.005Z,92.04
2023-11-15T00:39:29.166Z,92.34
2023-11-15T00:41:56.040Z,92.14
2023-11-15T00:44:22.813Z,91.80
2023-11-15T00:46:49.659Z,91.11
2023-11-15T00:49:16.297Z,90.92
2023-11-15T00:51:43.164Z,91.27
2023-11-15T00:54:09.920Z,91.89
2023-11-15T00:56:37.096Z,92.52
2023-11-15T00:59:04.209Z,92.19
2023-11-15T01:01:30.975Z,93.11
2023-11-15T01:03:58.080Z,92.84
2023-11-15T01:06:27.611Z,93.00
2023-11-15T01:08:55.938Z,93.18
2023-11-15T01:11:24.653Z,93.53
2023-11-15T01:13:51.414Z,93.31
2023-11-15T01:16:23.600Z,93.29
2023-11-15T01:18:51.113Z,93.11
2023-11-15T01:21:19.345Z,92.40
2023-11-15T01:23:46.127Z,93.06
2023-11-15T01:26:12.869Z,92.79
2023-11-15T01:28:39.663Z,93.14
2023-11-15T01:31:06.472Z,92.92
2023-11-15T01:33:33.279Z,93.18
2023-11-15T01:36:00.038Z,93.30
2023-11-15T01:38:26.773Z,94.12
2023-11-15T01:40:54.505Z,94.42
2023-11-15T01:43:21.194Z,93.99
2023-11-15T01:45:48.025Z,94.28
2023-11-15T01:48:17.906Z,93.56
2023-11-15T01:50:45.364Z,94.15
2023-11-15T01:53:12.177Z,93.78
2023-11-15T01:55:38.922Z,93.42
2023-11-15T01:58:06.137Z,93.03
2023-11-15T02:00:34.193Z,93.40
2023-11-15T02:03:02.342Z,93.71
2023-11-15T02:05:29.078Z,93.50
2023-11-15T02:07:55.915Z,92.83
2023-11-15T02:10:22.909Z,92.45
2023-11-15T02:12:49.898Z,92.15
2023-11-15T02:15:17.017Z,92.45
2023-11-15T02:17:44.331Z,92.47
2023-11-15T02:20:11.543Z,92.65
2023-11-15T02:22:48.415Z,92.86
2023-11-15T02:25:15.303Z,92.67
2023-11-15T02:27:42.672Z,92.26
2023-11-15T02:30:12.632Z,91.86
2023-11-15T02:32:41.279Z,90.77
2023-11-15T02:35:08.865Z,91.51
2023-11-15T02:37:36.070Z,91.35
2023-11-15T02:40:06.088Z,91.02
2023-11-15T02:42:34.067Z,91.00
2023-11-15T02:45:01.002Z,90.70
2023-11-15T02:47:28.487Z,90.47
2023-11-15T02:49:55.208Z,90.40
2023-11-15T02:52:22.190Z,89.54
2023-11-15T02:54:49.613Z,89.70
2023-11-15T02:57:16.338Z,89.65
2023-11-15T02:59:43.114Z,88.59
2023-11-15T03:02:09.802Z,89.37
2023-11-15T03:04:36.449Z,89.48
2023-11-15T03:07:03.645Z,88.69
2023-11-15T03:09:30.252Z,88.04
2023-11-15T03:11:57.232Z,88.56
2023-11-15T03:14:24.043Z,88.14
2023-11-15T03:16:50.761Z,88.34
2023-11-15T03:19:17.449Z,87.09
2023-11-15T03:21:44.204Z,87.56
2023-11-15T03:24:12.018Z,85.72
2023-11-15T03:26:38.860Z,86.20
2023-11-15T03:29:06.353Z,85.28
2023-11-15T03:31:33.210Z,85.77
2023-11-15T03:34:00.033Z,87.06
2023-11-15T03:36:26.876Z,85.63
2023-11-15T03:38:54.037Z,87.39
2023-11-15T03:41:20.745Z,87.69
2023-11-15T03:43:47.497Z,87.03
2023-11-15T03:46:14.217Z,87.64
2023-11-15T03:48:41.198Z,87.35
2023-11-15T03:51:08.283Z,87.10
2023-11-15T03:53:35.007Z,88.06
2023-11-15T03:56:01.750Z,90.32
2023-11-15T03:58:28.516Z,90.54
2023-11-15T04:00:58.055Z,92.17
2023-11-15T04:03:24.972Z,95.79
2023-11-15T04:05:51.945Z,91.54
2023-11-15T04:08:18.808Z,91.22
2023-11-15T04:10:45.533Z,91.20
2023-11-15T04:13:12.369Z,91.26
2023-11-15T04:15:39.074Z,91.71
2023-11-15T04:18:06.298Z,90.42
2023-11-15T04:20:33.129Z,90.81
2023-11-15T04:22:59.960Z,92.24
2023-11-15T04:25:26.563Z,91.70
2023-11-15T04:27:53.301Z,91.54
2023-11-15T04:30:20.059Z,91.03
2023-11-15T04:32:48.711Z,90.12
2023-11-15T04:35:15.715Z,88.56
2023-11-15T04:37:42.460Z,88.73
2023-11-15T04:40:10.498Z,85.70
2023-11-15T04:42:37.464Z,86.75
2023-11-15T04:45:05.763Z,86.02
2023-11-15T04:47:32.613Z,88.01
2023-11-15T04:49:59.389Z,88.84
2023-11-15T04:52:26.750Z,89.17
2023-11-15T04:54:55.635Z,91.36
2023-11-15T04:57:26.316Z,90.80
2023-11-15T04:59:56.917Z,90.68
2023-11-15T05:02:24.157Z,91.79
2023-11-15T05:04:53.286Z,91.65
2023-11-15T05:07:21.487Z,92.80
2023-11-15T05:09:48.301Z,92.09
2023-11-15T05:12:17.281Z,91.32
2023-11-15T05:14:44.538Z,91.39
2023-11-15T05:17:12.325Z,89.31
2023-11-15T05:19:39.537Z,91.13
2023-11-15T05:22:06.313Z,91.76
2023-11-15T05:24:32.997Z,92.90
2023-11-15T05:26:59.855Z,92.18
2023-11-15T05:29:26.635Z,90.54
2023-11-15T05:31:53.463Z,89.52
2023-11-15T05:34:20.579Z,91.29
2023-11-15T05:36:47.270Z,91.57
2023-11-15T05:39:14.114Z,91.36
2023-11-15T05:41:41.263Z,92.92
2023-11-15T05:44:08.059Z,93.68
2023-11-15T05:46:37.586Z,93.44
2023-11-15T05:49:05.127Z,93.51
2023-11-15T05:51:31.933Z,93.45
2023-11-15T05:53:59.559Z,94.91
2023-11-15T05:56:26.655Z,92.61
2023-11-15T05:58:53.584Z,93.28
2023-11-15T06:01:21.706Z,93.47
2023-11-15T06:03:49.796Z,93.19
2023-11-15T06:06:16.645Z,92.43
2023-11-15T06:08:43.576Z,89.82
2023-11-15T06:11:11.641Z,90.99
2023-11-15T06:13:43.986Z,90.18
2023-11-15T06:16:10.723Z,89.49
2023-11-15T06:18:38.874Z,90.14
2023-11-15T06:21:06.860Z,90.15
2023-11-15T06:23:35.361Z,89.61
2023-11-15T06:26:02.238Z,89.44
2023-11-15T06:28:28.992Z,90.10
2023-11-15T06:30:55.796Z,88.60
2023-11-15T06:33:22.614Z,89.33
2023-11-15T06:35:49.670Z,86.85
2023-11-15T06:38:16.497Z,90.26
2023-11-15T06:40:43.149Z,89.70
2023-11-15T06:43:09.855Z,88.90
2023-11-15T06:45:36.618Z,87.40
2023-11-15T06:48:03.684Z,87.91
2023-11-15T06:50:30.523Z,87.07
2023-11-15T06:52:57.203Z,85.88
2023-11-15T06:55:23.864Z,87.70
2023-11-15T06:57:50.617Z,88.66
2023-11-15T07:00:17.489Z,88.22
2023-11-15T07:02:44.411Z,84.85
2023-11-15T07:05:14.776Z,85.70
2023-11-15T07:07:41.585Z,84.34
2023-11-15T07:10:08.810Z,85.87
2023-11-15T07:12:36.457Z,85.75
2023-11-15T07:15:09.161Z,83.60
2023-11-15T07:17:35.989Z,82.63
2023-11-15T07:20:03.771Z,82.10
2023-11-15T07:22:30.479Z,82.51
2023-11-15T07:24:57.273Z,81.06
2023-11-15T07:27:25.575Z,79.45
2023-11-15T07:29:53.360Z,78.31
2023-11-15T07:32:20.279Z,77.15
2023-11-15T07:34:47.109Z,75.12
2023-11-15T07:37:14.495Z,74.23
2023-11-15T07:39:42.332Z,75.41
2023-11-15T07:42:09.161Z,73.93
2023-11-15T07:44:37.185Z,73.87
2023-11-15T07:47:04.244Z,73.96
2023-11-15T07:49:30.917Z,73.63
2023-11-15T07:51:57.576Z,72.77
2023-11-15T07:54:25.111Z,70.71
2023-11-15T07:56:52.108Z,70.44
2023-11-15T07:59:22.695Z,69.93
2023-11-15T08:01:49.855Z,69.15
2023-11-15T08:04:17.239Z,69.43
2023-11-15T08:06:44.349Z,68.55
2023-11-15T08:09:26.056Z,68.88
2023-11-15T08:11:57.863Z,68.37
2023-11-15T08:14:27.057Z,69.41
2023-11-15T08:16:54.448Z,67.71
2023-11-15T08:19:21.183Z,67.98
2023-11-15T08:21:48.587Z,67.88
2023-11-15T08:24:22.140Z,67.72
2023-11-15T08:26:51.348Z,67.13
2023-11-15T08:29:18.692Z,66.86
2023-11-15T08:31:45.559Z,66.82
2023-11-15T08:34:12.856Z,67.08
2023-11-15T08:36:39.759Z,66.13
2023-11-15T08:39:13.635Z,66.02
2023-11-15T08:41:42.548Z,65.41
2023-11-15T08:44:10.307Z,65.08
2023-11-15T08:46:42.584Z,65.89
2023-11-15T08:49:11.498Z,64.26
2023-11-15T08:51:38.400Z,64.09
2023-11-15T08:54:05.299Z,64.84
2023-11-15T08:56:32.957Z,63.94
2023-11-15T08:59:01.633Z,64.56
2023-11-15T09:01:28.553Z,65.27
2023-11-15T09:03:55.518Z,65.17
2023-11-15T09:06:24.449Z,66.18
2023-11-15T09:08:51.419Z,65.54
2023-11-15T09:11:18.637Z,64.67
2023-11-15T09:13:48.011Z,64.91
2023-11-15T09:16:15.093Z,65.10
2023-11-15T09:18:45.520Z,65.49
2023-11-15T09:21:12.486Z,64.60
2023-11-15T09:23:42.719Z,64.11
2023-11-15T09:26:21.993Z,64.74
2023-11-15T09:28:50.026Z,64.63
2023-11-15T09:31:17.143Z,64.65
2023-11-15T09:33:45.770Z,65.04
2023-11-15T09:36:12.804Z,65.04
2023-11-15T09:38:42.484Z,64.35
2023-11-15T09:41:13.884Z,64.14
2023-11-15T09:43:41.149Z,64.05
2023-11-15T09:46:11.882Z,64.31
2023-11-15T09:48:39.866Z,63.86
2023-11-15T09:51:06.758Z,64.74
2023-11-15T09:53:37.670Z,64.95
2023-11-15T09:56:08.317Z,63.58
2023-11-15T09:58:36.493Z,63.42
2023-11-15T10:01:04.112Z,62.65
2023-11-15T10:03:31.172Z,61.46
2023-11-15T10:06:00.483Z,61.04
2023-11-15T10:08:28.767Z,62.05
2023-11-15T10:11:08.710Z,62.70
2023-11-15T10:13:39.636Z,63.17
2023-11-15T10:16:23.447Z,63.15
2023-11-15T10:18:50.858Z,63.95
2023-11-15T10:21:19.743Z,64.89
2023-11-15T10:23:47.296Z,65.62
2023-11-15T10:26:14.215Z,68.32
2023-11-15T10:28:41.125Z,71.14
2023-11-15T10:31:13.980Z,75.36
2023-11-15T10:33:50.540Z,76.36
2023-11-15T10:36:22.874Z,79.40
2023-11-15T10:38:57.302Z,81.17
2023-11-15T10:41:26.286Z,80.46
2023-11-15T10:43:55.500Z,83.88
2023-11-15T10:46:32.363Z,86.07
2023-11-15T10:49:00.410Z,85.85
2023-11-15T10:51:45.645Z,87.68
2023-11-15T10:54:14.316Z,87.96
2023-11-15T10:56:45.013Z,90.01
2023-11-15T10:59:14.484Z,91.79
2023-11-15T11:01:41.894Z,91.66
2023-11-15T11:04:12.793Z,91.73
2023-11-15T11:06:59.169Z,92.65
2023-11-15T11:09:52.098Z,92.51
2023-11-15T11:12:21.813Z,91.99
2023-11-15T11:14:50.434Z,92.12
2023-11-15T11:17:36.111Z,92.76
2023-11-15T11:20:10.113Z,92.84
2023-11-15T11:22:36.936Z,93.70
2023-11-15T11:25:08.254Z,92.14
2023-11-15T11:27:35.570Z,91.73
2023-11-15T11:30:16.892Z,91.54
2023-11-15T11:32:44.880Z,92.02
2023-11-15T11:35:15.082Z,91.99
2023-11-15T11:37:48.509Z,91.23
2023-11-15T11:40:16.440Z,92.40
2023-11-15T11:42:45.279Z,92.71
2023-11-15T11:45:13.770Z,92.90
2023-11-15T11:47:41.270Z,91.94
2023-11-15T11:50:08.367Z,91.87
2023-11-15T11:52:37.992Z,91.87
2023-11-15T11:55:06.348Z,94.07
2023-11-15T11:57:33.121Z,93.20
2023-11-15T12:00:23.687Z,91.95
2023-11-15T12:03:00.515Z,90.50
2023-11-15T12:05:30.266Z,91.19
2023-11-15T12:07:57.670Z,91.83
2023-11-15T12:10:26.626Z,90.58
2023-11-15T12:13:00.634Z,91.72
2023-11-15T12:15:27.915Z,90.80
2023-11-15T12:18:01.044Z,89.38
2023-11-15T12:20:32.259Z,88.09
2023-11-15T12:23:09.441Z,89.79
2023-11-15T12:25:55.789Z,87.93
2023-11-15T12:28:26.584Z,92.18
2023-11-15T12:30:58.451Z,92.70
2023-11-15T12:33:26.950Z,94.85
2023-11-15T12:35:54.576Z,94.08
2023-11-15T12:38:21.419Z,90.28
2023-11-15T12:40:48.878Z,91.91
2023-11-15T12:43:20.754Z,91.40
2023-11-15T12:45:47.768Z,91.16
2023-11-15T12:48:14.677Z,92.48
2023-11-15T12:50:42.988Z,92.79
2023-11-15T12:53:16.059Z,93.63
2023-11-15T12:55:54.111Z,93.89
2023-11-15T12:58:30.202Z,92.02
2023-11-15T13:01:01.053Z,91.76
2023-11-15T13:03:31.970Z,91.34
2023-11-15T13:06:30.693Z,92.59
2023-11-15T13:09:01.738Z,92.13
2023-11-15T13:11:30.596Z,91.29
2023-11-15T13:13:57.547Z,89.96
2023-11-15T13:16:27.021Z,90.85
2023-11-15T13:18:54.912Z,90.93
2023-11-15T13:21:24.870Z,93.56
2023-11-15T13:23:55.323Z,92.07
2023-11-15T13:26:22.297Z,90.72
2023-11-15T13:28:49.950Z,92.31
2023-11-15T13:31:19.111Z,90.73
2023-11-15T13:33:48.714Z,90.28
2023-11-15T13:36:17.724Z,89.88
2023-11-15T13:38:44.665Z,90.41
2023-11-15T13:41:12.036Z,91.88
2023-11-15T13:43:39.525Z,90.79
2023-11-15T13:46:07.091Z,90.81
2023-11-15T13:48:34.488Z,91.28
2023-11-15T13:51:01.347Z,92.30
2023-11-15T13:53:27.999Z,92.75
2023-11-15T13:55:54.975Z,92.10
2023-11-15T13:58:21.744Z,93.06
2023-11-15T14:00:53.250Z,93.14
2023-11-15T14:03:20.076Z,93.63
2023-11-15T14:05:46.867Z,94.72
2023-11-15T14:08:14.156Z,94.21
2023-11-15T14:10:41.303Z,92.49
2023-11-15T14:13:08.156Z,95.14
2023-11-15T14:15:35.484Z,96.36
2023-11-15T14:18:04.278Z,93.69
2023-11-15T14:20:32.632Z,92.55
2023-11-15T14:22:59.617Z,92.63
2023-11-15T14:25:33.064Z,91.10
2023-11-15T14:28:03.182Z,90.19
2023-11-15T14:30:30.398Z,90.56
2023-11-15T14:32:57.692Z,90.42
2023-11-15T14:35:24.894Z,91.69
2023-11-15T14:37:54.960Z,91.03
2023-11-15T14:40:25.876Z,91.56
2023-11-15T14:42:57.332Z,91.77
2023-11-15T14:45:26.566Z,91.52
2023-11-15T14:47:53.919Z,93.21
2023-11-15T14:50:23.915Z,95.31
2023-11-15T14:52:56.704Z,96.18
2023-11-15T14:55:28.944Z,96.91
2023-11-15T14:57:57.844Z,97.85
2023-11-15T15:00:26.827Z,97.97
2023-11-15T15:02:58.770Z,98.25
2023-11-15T15:05:25.506Z,98.55
2023-11-15T15:07:52.212Z,98.20
2023-11-15T15:10:19.225Z,98.75
2023-11-15T15:12:46.096Z,99.76
2023-11-15T15:15:14.659Z,99.53
2023-11-15T15:17:41.421Z,98.68
2023-11-15T15:20:11.342Z,98.19
2023-11-15T15:22:40.891Z,99.03
2023-11-15T15:25:09.915Z,100.00
2023-11-15T15:27:36.650Z,100.00
2023-11-15T15:30:04.024Z,100.00
2023-11-15T15:32:30.939Z,100.00
2023-11-15T15:34:58.507Z,99.31
2023-11-15T15:37:25.670Z,99.73
2023-11-15T15:39:52.524Z,99.41
2023-11-15T15:42:20.542Z,100.00
2023-11-15T15:44:48.546Z,99.45
2023-11-15T15:47:15.230Z,99.31
2023-11-15T15:49:46.238Z,98.98
2023-11-15T15:52:14.543Z,99.34
2023-11-15T15:54:44.854Z,98.53
2023-11-15T15:57:11.749Z,98.42
2023-11-15T15:59:39.017Z,98.68
2023-11-15T16:02:06.826Z,100.00
2023-11-15T16:04:33.746Z,99.43
2023-11-15T16:07:03.243Z,99.27
2023-11-15T16:09:30.438Z,97.35
2023-11-15T16:11:58.213Z,96.19
2023-11-15T16:14:25.385Z,96.25
2023-11-15T16:16:52.206Z,97.31
2023-11-15T16:19:19.251Z,96.27
2023-11-15T16:21:46.221Z,96.97
2023-11-15T16:24:13.626Z,97.22
2023-11-15T16:26:40.493Z,97.05
2023-11-15T16:29:07.755Z,97.44
2023-11-15T16:31:34.497Z,98.07
2023-11-15T16:34:01.239Z,98.70
2023-11-15T16:36:28.585Z,98.25
2023-11-15T16:38:55.385Z,98.58
2023-11-15T16:41:22.268Z,99.79
2023-11-15T16:43:48.997Z,100.00
2023-11-15T16:46:17.794Z,99.86
2023-11-15T16:48:45.176Z,100.00
2023-11-15T16:51:12.171Z,100.00
2023-11-15T16:53:38.824Z,99.64
2023-11-15T16:56:06.065Z,100.00
2023-11-15T16:58:33.424Z,100.00
2023-11-15T17:01:00.243Z,100.00
2023-11-15T17:03:27.000Z,100.00
2023-11-15T17:05:54.208Z,100.00
2023-11-15T17:08:26.010Z,100.00
2023-11-15T17:10:52.716Z,100.00
2023-11-15T17:13:19.676Z,100.00
2023-11-15T17:15:46.391Z,100.00
2023-11-15T17:18:13.343Z,99.24
2023-11-15T17:20:41.585Z,99.41
2023-11-15T17:23:09.304Z,99.11
2023-11-15T17:25:36.521Z,98.82
2023-11-15T17:28:06.358Z,99.68
2023-11-15T17:30:34.533Z,100.00
2023-11-15T17:33:02.570Z,100.00
2023-11-15T17:35:29.423Z,99.70
2023-11-15T17:37:56.191Z,99.79
2023-11-15T17:40:23.050Z,100.00
2023-11-15T17:42:49.809Z,100.00
2023-11-15T17:45:16.754Z,100.00
2023-11-15T17:47:43.625Z,98.26
2023-11-15T17:50:11.065Z,98.08
2023-11-15T17:52:41.595Z,99.00
2023-11-15T17:55:09.805Z,99.13
2023-11-15T17:57:36.678Z,99.20
2023-11-15T18:00:11.247Z,98.71
2023-11-15T18:02:38.057Z,98.62
2023-11-15T18:05:04.996Z,98.91
2023-11-15T18:07:31.632Z,99.76
2023-11-15T18:09:58.388Z,100.00
2023-11-15T18:12:25.133Z,99.39
2023-11-15T18:14:52.103Z,100.00
2023-11-15T18:17:18.776Z,99.97
2023-11-15T18:19:45.486Z,100.00
2023-11-15T18:22:12.303Z,100.00
2023-11-15T18:24:39.130Z,100.00
2023-11-15T18:27:07.930Z,100.00
2023-11-15T18:29:35.493Z,100.00
2023-11-15T18:32:02.478Z,100.00
2023-11-15T18:34:29.364Z,100.00
2023-11-15T18:36:56.336Z,100.00
2023-11-15T18:39:23.088Z,100.00
2023-11-15T18:41:50.126Z,100.00
2023-11-15T18:44:19.696Z,100.00
2023-11-15T18:46:53.522Z,100.00
2023-11-15T18:49:21.947Z,99.94
2023-11-15T18:51:48.653Z,98.48
2023-11-15T18:54:15.545Z,96.28
2023-11-15T18:56:42.384Z,96.11
2023-11-15T18:59:09.033Z,97.56
2023-11-15T19:01:35.767Z,98.85
2023-11-15T19:04:03.958Z,97.94
2023-11-15T19:06:33.373Z,97.47
2023-11-15T19:09:00.638Z,95.81
2023-11-15T19:11:28.509Z,96.05
2023-11-15T19:13:58.764Z,96.59
2023-11-15T19:16:28.984Z,96.14
2023-11-15T19:18:56.856Z,95.45
2023-11-15T19:21:26.524Z,95.13
2023-11-15T19:23:53.329Z,93.83
2023-11-15T19:26:22.182Z,94.76
2023-11-15T19:28:50.364Z,94.41
2023-11-15T19:31:16.998Z,94.68
2023-11-15T19:33:43.815Z,95.87
2023-11-15T19:36:10.918Z,97.02
2023-11-15T19:38:38.109Z,97.12
2023-11-15T19:41:05.901Z,96.51
2023-11-15T19:43:32.529Z,98.00
2023-11-15T19:46:00.033Z,99.08
2023-11-15T19:48:27.212Z,99.16
2023-11-15T19:50:54.150Z,100.00
2023-11-15T19:53:21.269Z,100.00
2023-11-15T19:55:48.190Z,100.00
2023-11-15T19:58:14.963Z,100.00
2023-11-15T20:00:42.160Z,99.98
2023-11-15T20:03:11.284Z,99.20
2023-11-15T20:05:39.966Z,95.92
2023-11-15T20:08:07.446Z,94.99
2023-11-15T20:10:34.160Z,95.03
2023-11-15T20:13:00.873Z,96.83
2023-11-15T20:15:28.162Z,98.23
2023-11-15T20:17:54.972Z,98.69
2023-11-15T20:20:24.378Z,97.40
2023-11-15T20:22:53.028Z,97.64
2023-11-15T20:25:21.373Z,95.24
2023-11-15T20:27:48.163Z,96.83
2023-11-15T20:30:15.447Z,99.28
2023-11-15T20:32:42.491Z,100.00
2023-11-15T20:35:09.498Z,100.00
2023-11-15T20:37:36.376Z,100.00
2023-11-15T20:40:05.963Z,99.99
2023-11-15T20:42:33.012Z,100.00
2023-11-15T20:44:59.800Z,100.00
2023-11-15T20:47:26.589Z,100.00
2023-11-15T20:49:53.344Z,100.00
2023-11-15T20:52:20.232Z,100.00
2023-11-15T20:54:47.065Z,100.00
2023-11-15T20:57:13.898Z,100.00
2023-11-15T20:59:40.683Z,100.00
2023-11-15T21:02:07.680Z,100.00
2023-11-15T21:04:34.829Z,100.00
2023-11-15T21:07:01.760Z,100.00
2023-11-15T21:09:28.447Z,100.00
2023-11-15T21:11:56.329Z,100.00
2023-11-15T21:14:23.347Z,100.00
2023-11-15T21:16:50.231Z,100.00
2023-11-15T21:19:19.514Z,100.00
2023-11-15T21:21:47.302Z,99.17
2023-11-15T21:24:13.973Z,98.60
2023-11-15T21:26:45.431Z,98.72
2023-11-15T21:29:12.575Z,98.56
2023-11-15T21:31:41.140Z,98.07
2023-11-15T21:34:09.112Z,98.14
2023-11-15T21:36:37.477Z,97.09
2023-11-15T21:39:05.537Z,98.05
2023-11-15T21:41:32.324Z,98.53
2023-11-15T21:44:00.648Z,98.23
2023-11-15T21:46:29.761Z,97.42
2023-11-15T21:48:56.936Z,97.87
2023-11-15T21:51:23.786Z,97.51
2023-11-15T21:53:54.279Z,97.29
2023-11-15T21:56:21.833Z,98.60
2023-11-15T21:58:48.818Z,99.08
2023-11-15T22:01:15.680Z,98.02
2023-11-15T22:03:43.136Z,97.48
2023-11-15T22:06:10.134Z,98.00
2023-11-15T22:08:36.933Z,98.51
2023-11-15T22:11:05.709Z,99.20
2023-11-15T22:13:32.819Z,99.39
2023-11-15T22:15:59.579Z,99.34
2023-11-15T22:18:28.987Z,99.62
2023-11-15T22:20:56.399Z,100.00
2023-11-15T22:23:23.046Z,99.41
2023-11-15T22:25:49.754Z,99.39
2023-11-15T22:28:16.494Z,98.67
2023-11-15T22:30:43.718Z,97.70
2023-11-15T22:33:12.106Z,98.59
2023-11-15T22:35:38.826Z,97.97
2023-11-15T22:38:05.630Z,97.21
2023-11-15T22:40:32.395Z,97.19
2023-11-15T22:43:04.372Z,97.71
2023-11-15T22:45:31.744Z,99.35
2023-11-15T22:47:59.570Z,99.44
2023-11-15T22:50:26.498Z,99.27
2023-11-15T22:52:53.154Z,97.40
2023-11-15T22:55:19.804Z,97.51
2023-11-15T22:57:46.542Z,98.25
2023-11-15T23:00:26.743Z,97.19
2023-11-15T23:02:54.703Z,97.36
2023-11-15T23:05:21.776Z,100.00
2023-11-15T23:07:49.587Z,99.68
2023-11-15T23:10:16.897Z,100.00
2023-11-15T23:12:43.800Z,100.00
2023-11-15T23:15:12.368Z,98.33
2023-11-15T23:17:39.265Z,96.49
2023-11-15T23:20:06.415Z,96.76
2023-11-15T23:22:33.170Z,98.50
2023-11-15T23:25:00.322Z,98.35
2023-11-15T23:27:27.189Z,98.12
2023-11-15T23:29:54.004Z,97.32
2023-11-15T23:32:23.544Z,97.63
2023-11-15T23:34:50.445Z,97.76
2023-11-15T23:37:17.082Z,98.26
2023-11-15T23:39:43.933Z,98.76
2023-11-15T23:42:12.859Z,98.14
2023-11-15T23:44:40.147Z,97.93
2023-11-15T23:47:07.257Z,97.34
2023-11-15T23:49:34.360Z,96.70
2023-11-15T23:52:01.198Z,96.56
2023-11-15T23:54:27.992Z,96.12
2023-11-15T23:56:56.403Z,95.79
2023-11-15T23:59:23.670Z,95.83
